sensor_id;sensor_type;location;lat;lon;timestamp;pressure;altitude;pressure_sealevel;temperature
68588;BMP180;55560;52.174;20.996;2022-09-13T00:01:08;100323.80;;;11.20
68588;BMP180;55560;52.174;20.996;2022-09-13T00:03:39;100331.00;;;11.18
68588;BMP180;55560;52.174;20.996;2022-09-13T00:06:16;100335.60;;;11.10
68588;BMP180;55560;52.174;20.996;2022-09-13T00:08:46;100341.20;;;11.10
68588;BMP180;55560;52.174;20.996;2022-09-13T00:11:18;100337.80;;;11.10
68588;BMP180;55560;52.174;20.996;2022-09-13T00:13:49;100342.80;;;11.10
68588;BMP180;55560;52.174;20.996;2022-09-13T00:16:19;100340.40;;;11.10
68588;BMP180;55560;52.174;20.996;2022-09-13T00:18:48;100340.20;;;11.10
68588;BMP180;55560;52.174;20.996;2022-09-13T00:21:18;100338.60;;;11.10
68588;BMP180;55560;52.174;20.996;2022-09-13T00:23:49;100334.40;;;11.10
68588;BMP180;55560;52.174;20.996;2022-09-13T00:26:27;100335.00;;;11.00
68588;BMP180;55560;52.174;20.996;2022-09-13T00:28:57;100332.60;;;11.00
68588;BMP180;55560;52.174;20.996;2022-09-13T00:31:27;100332.00;;;11.00
68588;BMP180;55560;52.174;20.996;2022-09-13T00:33:58;100331.40;;;11.00
68588;BMP180;55560;52.174;20.996;2022-09-13T00:36:27;100330.00;;;11.00
68588;BMP180;55560;52.174;20.996;2022-09-13T00:38:55;100334.40;;;10.90
68588;BMP180;55560;52.174;20.996;2022-09-13T00:41:23;100337.00;;;10.90
68588;BMP180;55560;52.174;20.996;2022-09-13T00:43:59;100334.20;;;10.90
68588;BMP180;55560;52.174;20.996;2022-09-13T00:46:47;100332.60;;;10.80
68588;BMP180;55560;52.174;20.996;2022-09-13T00:49:20;100333.00;;;10.80
68588;BMP180;55560;52.174;20.996;2022-09-13T00:52:03;100335.40;;;10.70
68588;BMP180;55560;52.174;20.996;2022-09-13T00:54:40;100335.60;;;10.70
68588;BMP180;55560;52.174;20.996;2022-09-13T00:57:10;100330.60;;;10.70
68588;BMP180;55560;52.174;20.996;2022-09-13T00:59:49;100335.20;;;10.60
68588;BMP180;55560;52.174;20.996;2022-09-13T01:02:18;100331.00;;;10.60
68588;BMP180;55560;52.174;20.996;2022-09-13T01:04:47;100334.00;;;10.60
68588;BMP180;55560;52.174;20.996;2022-09-13T01:07:16;100338.20;;;10.60
68588;BMP180;55560;52.174;20.996;2022-09-13T01:09:47;100332.80;;;10.60
68588;BMP180;55560;52.174;20.996;2022-09-13T01:15:23;100332.00;;;10.60
68588;BMP180;55560;52.174;20.996;2022-09-13T01:17:53;100332.60;;;10.60
68588;BMP180;55560;52.174;20.996;2022-09-13T01:20:26;100332.20;;;10.52
68588;BMP180;55560;52.174;20.996;2022-09-13T01:24:21;100329.40;;;10.50
68588;BMP180;55560;52.174;20.996;2022-09-13T01:30:07;100324.00;;;10.50
68588;BMP180;55560;52.174;20.996;2022-09-13T01:32:59;100322.20;;;10.50
68588;BMP180;55560;52.174;20.996;2022-09-13T01:41:21;100322.00;;;10.40
68588;BMP180;55560;52.174;20.996;2022-09-13T01:52:52;100315.20;;;10.20
68588;BMP180;55560;52.174;20.996;2022-09-13T01:55:47;100314.20;;;10.20
68588;BMP180;55560;52.174;20.996;2022-09-13T02:03:44;100311.40;;;10.10
68588;BMP180;55560;52.174;20.996;2022-09-13T02:06:21;100314.40;;;10.00
68588;BMP180;55560;52.174;20.996;2022-09-13T02:09:00;100313.40;;;10.00
68588;BMP180;55560;52.174;20.996;2022-09-13T02:11:30;100307.20;;;10.00
68588;BMP180;55560;52.174;20.996;2022-09-13T02:14:06;100309.00;;;10.00
68588;BMP180;55560;52.174;20.996;2022-09-13T02:17:30;100307.20;;;9.90
68588;BMP180;55560;52.174;20.996;2022-09-13T02:20:02;100304.60;;;9.90
68588;BMP180;55560;52.174;20.996;2022-09-13T02:22:37;100298.40;;;9.90
68588;BMP180;55560;52.174;20.996;2022-09-13T02:25:11;100293.60;;;9.86
68588;BMP180;55560;52.174;20.996;2022-09-13T02:27:43;100292.40;;;9.80
68588;BMP180;55560;52.174;20.996;2022-09-13T02:30:12;100288.80;;;9.80
68588;BMP180;55560;52.174;20.996;2022-09-13T02:32:53;100288.00;;;9.80
68588;BMP180;55560;52.174;20.996;2022-09-13T02:35:38;100282.80;;;9.80
68588;BMP180;55560;52.174;20.996;2022-09-13T02:38:14;100282.60;;;9.78
68588;BMP180;55560;52.174;20.996;2022-09-13T02:40:56;100283.00;;;9.70
68588;BMP180;55560;52.174;20.996;2022-09-13T02:43:38;100282.00;;;9.70
68588;BMP180;55560;52.174;20.996;2022-09-13T02:46:20;100279.40;;;9.68
68588;BMP180;55560;52.174;20.996;2022-09-13T02:49:26;100281.80;;;9.60
68588;BMP180;55560;52.174;20.996;2022-09-13T02:52:28;100279.60;;;9.60
68588;BMP180;55560;52.174;20.996;2022-09-13T02:58:05;100280.40;;;9.50
68588;BMP180;55560;52.174;20.996;2022-09-13T03:00:36;100279.60;;;9.46
68588;BMP180;55560;52.174;20.996;2022-09-13T03:03:08;100278.00;;;9.40
68588;BMP180;55560;52.174;20.996;2022-09-13T03:05:38;100271.20;;;9.40
68588;BMP180;55560;52.174;20.996;2022-09-13T03:08:10;100265.00;;;9.38
68588;BMP180;55560;52.174;20.996;2022-09-13T03:22:35;100267.40;;;9.20
68588;BMP180;55560;52.174;20.996;2022-09-13T03:34:08;100252.80;;;9.00
68588;BMP180;55560;52.174;20.996;2022-09-13T03:37:11;100250.80;;;9.00
68588;BMP180;55560;52.174;20.996;2022-09-13T03:39:59;100245.00;;;9.00
68588;BMP180;55560;52.174;20.996;2022-09-13T03:42:57;100245.60;;;8.96
68588;BMP180;55560;52.174;20.996;2022-09-13T03:45:30;100238.80;;;8.90
68588;BMP180;55560;52.174;20.996;2022-09-13T03:48:02;100239.80;;;8.82
68588;BMP180;55560;52.174;20.996;2022-09-13T03:50:31;100239.40;;;8.80
68588;BMP180;55560;52.174;20.996;2022-09-13T03:53:02;100233.80;;;8.80
68588;BMP180;55560;52.174;20.996;2022-09-13T03:55:32;100233.60;;;8.80
68588;BMP180;55560;52.174;20.996;2022-09-13T03:58:01;100235.80;;;8.80
68588;BMP180;55560;52.174;20.996;2022-09-13T04:00:29;100237.20;;;8.72
68588;BMP180;55560;52.174;20.996;2022-09-13T04:02:57;100234.20;;;8.70
68588;BMP180;55560;52.174;20.996;2022-09-13T04:05:24;100234.00;;;8.70
68588;BMP180;55560;52.174;20.996;2022-09-13T04:07:52;100235.00;;;8.70
68588;BMP180;55560;52.174;20.996;2022-09-13T04:10:20;100227.60;;;8.70
68588;BMP180;55560;52.174;20.996;2022-09-13T04:12:50;100224.00;;;8.70
68588;BMP180;55560;52.174;20.996;2022-09-13T04:15:20;100225.00;;;8.62
68588;BMP180;55560;52.174;20.996;2022-09-13T04:17:48;100227.80;;;8.60
68588;BMP180;55560;52.174;20.996;2022-09-13T04:20:16;100228.60;;;8.60
68588;BMP180;55560;52.174;20.996;2022-09-13T04:22:53;100230.20;;;8.60
68588;BMP180;55560;52.174;20.996;2022-09-13T04:25:22;100230.40;;;8.60
68588;BMP180;55560;52.174;20.996;2022-09-13T04:27:55;100231.60;;;8.58
68588;BMP180;55560;52.174;20.996;2022-09-13T04:30:23;100234.20;;;8.60
68588;BMP180;55560;52.174;20.996;2022-09-13T04:32:51;100237.80;;;8.60
68588;BMP180;55560;52.174;20.996;2022-09-13T04:35:19;100230.80;;;8.60
68588;BMP180;55560;52.174;20.996;2022-09-13T04:37:46;100232.00;;;8.60
68588;BMP180;55560;52.174;20.996;2022-09-13T04:40:14;100231.00;;;8.60
68588;BMP180;55560;52.174;20.996;2022-09-13T04:42:43;100229.20;;;8.60
68588;BMP180;55560;52.174;20.996;2022-09-13T04:45:12;100233.40;;;8.64
68588;BMP180;55560;52.174;20.996;2022-09-13T04:47:40;100232.80;;;8.68
68588;BMP180;55560;52.174;20.996;2022-09-13T04:50:08;100234.60;;;8.62
68588;BMP180;55560;52.174;20.996;2022-09-13T04:52:36;100236.00;;;8.68
68588;BMP180;55560;52.174;20.996;2022-09-13T04:55:05;100232.80;;;8.70
68588;BMP180;55560;52.174;20.996;2022-09-13T04:57:33;100229.80;;;8.70
68588;BMP180;55560;52.174;20.996;2022-09-13T05:00:02;100235.00;;;8.70
68588;BMP180;55560;52.174;20.996;2022-09-13T05:02:30;100232.20;;;8.70
68588;BMP180;55560;52.174;20.996;2022-09-13T05:04:58;100233.60;;;8.78
68588;BMP180;55560;52.174;20.996;2022-09-13T05:07:26;100229.60;;;8.80
68588;BMP180;55560;52.174;20.996;2022-09-13T05:09:54;100235.60;;;8.80
68588;BMP180;55560;52.174;20.996;2022-09-13T05:12:22;100233.60;;;8.90
68588;BMP180;55560;52.174;20.996;2022-09-13T05:14:50;100224.60;;;8.90
68588;BMP180;55560;52.174;20.996;2022-09-13T05:17:17;100226.40;;;9.00
68588;BMP180;55560;52.174;20.996;2022-09-13T05:19:45;100226.40;;;9.00
68588;BMP180;55560;52.174;20.996;2022-09-13T05:22:14;100224.20;;;9.10
68588;BMP180;55560;52.174;20.996;2022-09-13T05:24:42;100226.80;;;9.20
68588;BMP180;55560;52.174;20.996;2022-09-13T05:27:10;100226.80;;;9.24
68588;BMP180;55560;52.174;20.996;2022-09-13T05:29:37;100231.80;;;9.36
68588;BMP180;55560;52.174;20.996;2022-09-13T05:32:05;100229.80;;;9.42
68588;BMP180;55560;52.174;20.996;2022-09-13T05:34:33;100226.80;;;9.50
68588;BMP180;55560;52.174;20.996;2022-09-13T05:37:01;100228.60;;;9.60
68588;BMP180;55560;52.174;20.996;2022-09-13T05:39:29;100225.40;;;9.70
68588;BMP180;55560;52.174;20.996;2022-09-13T05:42:17;100224.60;;;9.80
68588;BMP180;55560;52.174;20.996;2022-09-13T05:44:45;100230.60;;;9.90
68588;BMP180;55560;52.174;20.996;2022-09-13T05:47:13;100225.60;;;10.00
68588;BMP180;55560;52.174;20.996;2022-09-13T05:49:41;100225.60;;;10.10
68588;BMP180;55560;52.174;20.996;2022-09-13T05:52:29;100217.20;;;10.30
68588;BMP180;55560;52.174;20.996;2022-09-13T05:54:57;100214.60;;;10.32
68588;BMP180;55560;52.174;20.996;2022-09-13T05:57:25;100206.60;;;10.44
68588;BMP180;55560;52.174;20.996;2022-09-13T05:59:52;100206.00;;;10.54
68588;BMP180;55560;52.174;20.996;2022-09-13T06:02:21;100206.00;;;10.66
68588;BMP180;55560;52.174;20.996;2022-09-13T06:04:49;100200.40;;;10.76
68588;BMP180;55560;52.174;20.996;2022-09-13T06:07:17;100199.60;;;10.88
68588;BMP180;55560;52.174;20.996;2022-09-13T06:09:45;100193.20;;;11.00
68588;BMP180;55560;52.174;20.996;2022-09-13T06:12:13;100193.60;;;11.10
68588;BMP180;55560;52.174;20.996;2022-09-13T06:14:40;100195.20;;;11.20
68588;BMP180;55560;52.174;20.996;2022-09-13T06:17:08;100195.20;;;11.40
68588;BMP180;55560;52.174;20.996;2022-09-13T06:19:36;100198.40;;;11.48
68588;BMP180;55560;52.174;20.996;2022-09-13T06:22:05;100204.60;;;11.60
68588;BMP180;55560;52.174;20.996;2022-09-13T06:24:33;100198.80;;;11.70
68588;BMP180;55560;52.174;20.996;2022-09-13T06:27:04;100192.40;;;11.80
68588;BMP180;55560;52.174;20.996;2022-09-13T06:29:32;100198.00;;;11.90
68588;BMP180;55560;52.174;20.996;2022-09-13T06:32:01;100194.80;;;12.00
68588;BMP180;55560;52.174;20.996;2022-09-13T06:34:29;100197.20;;;12.18
68588;BMP180;55560;52.174;20.996;2022-09-13T06:36:58;100201.60;;;12.30
68588;BMP180;55560;52.174;20.996;2022-09-13T06:39:26;100202.60;;;12.40
68588;BMP180;55560;52.174;20.996;2022-09-13T06:41:54;100198.60;;;12.50
68588;BMP180;55560;52.174;20.996;2022-09-13T06:44:23;100205.00;;;12.60
68588;BMP180;55560;52.174;20.996;2022-09-13T06:46:51;100204.40;;;12.70
68588;BMP180;55560;52.174;20.996;2022-09-13T06:49:19;100203.20;;;12.80
68588;BMP180;55560;52.174;20.996;2022-09-13T06:51:47;100201.60;;;12.90
68588;BMP180;55560;52.174;20.996;2022-09-13T06:54:15;100192.80;;;13.10
68588;BMP180;55560;52.174;20.996;2022-09-13T06:56:43;100190.00;;;13.20
68588;BMP180;55560;52.174;20.996;2022-09-13T06:59:11;100193.40;;;13.30
68588;BMP180;55560;52.174;20.996;2022-09-13T07:01:42;100195.80;;;13.40
68588;BMP180;55560;52.174;20.996;2022-09-13T07:04:16;100194.00;;;13.50
68588;BMP180;55560;52.174;20.996;2022-09-13T07:06:48;100195.20;;;13.60
68588;BMP180;55560;52.174;20.996;2022-09-13T07:09:20;100196.20;;;13.70
68588;BMP180;55560;52.174;20.996;2022-09-13T07:11:53;100193.40;;;13.80
68588;BMP180;55560;52.174;20.996;2022-09-13T07:14:24;100192.80;;;13.98
68588;BMP180;55560;52.174;20.996;2022-09-13T07:16:53;100188.60;;;14.10
68588;BMP180;55560;52.174;20.996;2022-09-13T07:19:24;100183.00;;;14.26
68588;BMP180;55560;52.174;20.996;2022-09-13T07:21:55;100180.60;;;14.50
68588;BMP180;55560;52.174;20.996;2022-09-13T07:24:24;100181.40;;;14.86
68588;BMP180;55560;52.174;20.996;2022-09-13T07:26:52;100179.00;;;15.54
68588;BMP180;55560;52.174;20.996;2022-09-13T07:29:21;100184.80;;;16.54
68588;BMP180;55560;52.174;20.996;2022-09-13T07:31:53;100186.20;;;17.48
68588;BMP180;55560;52.174;20.996;2022-09-13T07:34:23;100182.40;;;18.00
68588;BMP180;55560;52.174;20.996;2022-09-13T07:36:51;100183.40;;;18.20
68588;BMP180;55560;52.174;20.996;2022-09-13T07:39:19;100184.80;;;18.66
68588;BMP180;55560;52.174;20.996;2022-09-13T07:41:51;100183.40;;;19.30
68588;BMP180;55560;52.174;20.996;2022-09-13T07:44:20;100185.00;;;19.64
68588;BMP180;55560;52.174;20.996;2022-09-13T07:46:49;100186.40;;;20.78
68588;BMP180;55560;52.174;20.996;2022-09-13T07:49:18;100188.00;;;21.60
68588;BMP180;55560;52.174;20.996;2022-09-13T07:51:46;100193.80;;;21.60
68588;BMP180;55560;52.174;20.996;2022-09-13T07:54:19;100198.20;;;21.34
68588;BMP180;55560;52.174;20.996;2022-09-13T07:56:48;100193.40;;;20.78
68588;BMP180;55560;52.174;20.996;2022-09-13T07:59:18;100192.80;;;20.50
68588;BMP180;55560;52.174;20.996;2022-09-13T08:01:50;100191.00;;;20.14
68588;BMP180;55560;52.174;20.996;2022-09-13T08:04:23;100188.20;;;19.74
68588;BMP180;55560;52.174;20.996;2022-09-13T08:06:52;100188.80;;;19.30
68588;BMP180;55560;52.174;20.996;2022-09-13T08:09:19;100187.20;;;19.00
68588;BMP180;55560;52.174;20.996;2022-09-13T08:11:50;100187.00;;;18.90
68588;BMP180;55560;52.174;20.996;2022-09-13T08:14:22;100184.60;;;18.70
68588;BMP180;55560;52.174;20.996;2022-09-13T08:16:54;100173.80;;;18.48
68588;BMP180;55560;52.174;20.996;2022-09-13T08:19:23;100169.60;;;18.30
68588;BMP180;55560;52.174;20.996;2022-09-13T08:21:51;100168.00;;;18.30
68588;BMP180;55560;52.174;20.996;2022-09-13T08:24:20;100163.60;;;18.30
68588;BMP180;55560;52.174;20.996;2022-09-13T08:26:49;100159.60;;;18.30
68588;BMP180;55560;52.174;20.996;2022-09-13T08:29:18;100163.00;;;18.22
68588;BMP180;55560;52.174;20.996;2022-09-13T08:31:47;100165.80;;;18.10
68588;BMP180;55560;52.174;20.996;2022-09-13T08:34:15;100162.40;;;18.00
68588;BMP180;55560;52.174;20.996;2022-09-13T08:36:44;100159.00;;;18.00
68588;BMP180;55560;52.174;20.996;2022-09-13T08:39:12;100160.00;;;17.90
68588;BMP180;55560;52.174;20.996;2022-09-13T08:44:28;100158.80;;;17.90
68588;BMP180;55560;52.174;20.996;2022-09-13T08:47:39;100154.00;;;17.90
68588;BMP180;55560;52.174;20.996;2022-09-13T08:50:21;100159.00;;;18.00
68588;BMP180;55560;52.174;20.996;2022-09-13T08:53:30;100155.20;;;18.00
68588;BMP180;55560;52.174;20.996;2022-09-13T08:56:09;100156.20;;;18.10
68588;BMP180;55560;52.174;20.996;2022-09-13T08:59:02;100153.20;;;18.08
68588;BMP180;55560;52.174;20.996;2022-09-13T09:07:43;100153.60;;;18.20
68588;BMP180;55560;52.174;20.996;2022-09-13T09:10:20;100150.80;;;18.30
68588;BMP180;55560;52.174;20.996;2022-09-13T09:13:16;100148.60;;;18.30
68588;BMP180;55560;52.174;20.996;2022-09-13T09:16:39;100146.60;;;18.20
68588;BMP180;55560;52.174;20.996;2022-09-13T09:19:32;100141.20;;;18.20
68588;BMP180;55560;52.174;20.996;2022-09-13T09:22:12;100142.00;;;18.10
68588;BMP180;55560;52.174;20.996;2022-09-13T09:24:45;100140.60;;;18.14
68588;BMP180;55560;52.174;20.996;2022-09-13T09:27:17;100136.40;;;18.10
68588;BMP180;55560;52.174;20.996;2022-09-13T09:29:50;100137.80;;;18.10
68588;BMP180;55560;52.174;20.996;2022-09-13T09:38:36;100123.60;;;18.40
68588;BMP180;55560;52.174;20.996;2022-09-13T09:41:29;100117.20;;;18.58
68588;BMP180;55560;52.174;20.996;2022-09-13T09:46:39;100118.40;;;18.70
68588;BMP180;55560;52.174;20.996;2022-09-13T09:49:25;100121.20;;;18.70
68588;BMP180;55560;52.174;20.996;2022-09-13T09:52:17;100118.80;;;18.80
68588;BMP180;55560;52.174;20.996;2022-09-13T09:54:49;100113.80;;;18.90
68588;BMP180;55560;52.174;20.996;2022-09-13T09:57:17;100110.00;;;18.90
68588;BMP180;55560;52.174;20.996;2022-09-13T09:59:47;100105.60;;;19.00
68588;BMP180;55560;52.174;20.996;2022-09-13T10:02:20;100105.20;;;19.00
68588;BMP180;55560;52.174;20.996;2022-09-13T10:04:56;100096.40;;;19.10
68588;BMP180;55560;52.174;20.996;2022-09-13T10:07:32;100097.20;;;19.20
68588;BMP180;55560;52.174;20.996;2022-09-13T10:10:07;100092.60;;;19.18
68588;BMP180;55560;52.174;20.996;2022-09-13T10:12:55;100088.20;;;19.30
68588;BMP180;55560;52.174;20.996;2022-09-13T10:15:27;100088.00;;;19.40
68588;BMP180;55560;52.174;20.996;2022-09-13T10:18:14;100082.00;;;19.50
68588;BMP180;55560;52.174;20.996;2022-09-13T10:21:23;100079.80;;;19.50
68588;BMP180;55560;52.174;20.996;2022-09-13T10:24:19;100080.80;;;19.56
68588;BMP180;55560;52.174;20.996;2022-09-13T10:26:48;100081.20;;;19.60
68588;BMP180;55560;52.174;20.996;2022-09-13T10:29:16;100079.20;;;19.52
68588;BMP180;55560;52.174;20.996;2022-09-13T10:31:47;100083.80;;;19.50
68588;BMP180;55560;52.174;20.996;2022-09-13T10:34:35;100077.80;;;19.50
68588;BMP180;55560;52.174;20.996;2022-09-13T10:37:18;100068.80;;;19.60
68588;BMP180;55560;52.174;20.996;2022-09-13T10:40:06;100066.40;;;19.60
68588;BMP180;55560;52.174;20.996;2022-09-13T10:42:36;100059.20;;;19.60
68588;BMP180;55560;52.174;20.996;2022-09-13T10:45:06;100060.60;;;19.60
68588;BMP180;55560;52.174;20.996;2022-09-13T10:47:47;100056.60;;;19.60
68588;BMP180;55560;52.174;20.996;2022-09-13T10:50:24;100052.20;;;19.60
68588;BMP180;55560;52.174;20.996;2022-09-13T10:52:54;100050.00;;;19.48
68588;BMP180;55560;52.174;20.996;2022-09-13T10:55:25;100048.60;;;19.50
68588;BMP180;55560;52.174;20.996;2022-09-13T10:58:19;100050.60;;;19.60
68588;BMP180;55560;52.174;20.996;2022-09-13T11:01:30;100055.00;;;19.70
68588;BMP180;55560;52.174;20.996;2022-09-13T11:05:02;100054.60;;;19.80
68588;BMP180;55560;52.174;20.996;2022-09-13T11:13:53;100048.20;;;19.90
68588;BMP180;55560;52.174;20.996;2022-09-13T11:20:08;100042.20;;;20.00
68588;BMP180;55560;52.174;20.996;2022-09-13T11:25:54;100035.60;;;20.00
68588;BMP180;55560;52.174;20.996;2022-09-13T11:32:07;100028.60;;;20.00
68588;BMP180;55560;52.174;20.996;2022-09-13T11:47:02;100017.60;;;20.20
68588;BMP180;55560;52.174;20.996;2022-09-13T11:49:58;100011.80;;;20.20
68588;BMP180;55560;52.174;20.996;2022-09-13T11:55:39;100005.20;;;20.20
68588;BMP180;55560;52.174;20.996;2022-09-13T11:58:22;99994.00;;;20.14
68588;BMP180;55560;52.174;20.996;2022-09-13T12:01:00;99988.40;;;20.12
68588;BMP180;55560;52.174;20.996;2022-09-13T12:06:23;99976.00;;;20.26
68588;BMP180;55560;52.174;20.996;2022-09-13T12:09:00;99977.20;;;20.30
68588;BMP180;55560;52.174;20.996;2022-09-13T12:12:26;99975.60;;;20.30
68588;BMP180;55560;52.174;20.996;2022-09-13T12:14:41;99969.20;;;20.40
68588;BMP180;55560;52.174;20.996;2022-09-13T12:17:38;99968.80;;;20.40
68588;BMP180;55560;52.174;20.996;2022-09-13T12:23:02;99954.80;;;20.58
68588;BMP180;55560;52.174;20.996;2022-09-13T12:26:14;99950.00;;;20.50
68588;BMP180;55560;52.174;20.996;2022-09-13T12:28:53;99941.80;;;20.50
68588;BMP180;55560;52.174;20.996;2022-09-13T12:31:28;99942.40;;;20.50
68588;BMP180;55560;52.174;20.996;2022-09-13T12:33:57;99933.00;;;20.40
68588;BMP180;55560;52.174;20.996;2022-09-13T12:36:54;99923.40;;;20.22
68588;BMP180;55560;52.174;20.996;2022-09-13T12:45:43;99925.80;;;20.10
68588;BMP180;55560;52.174;20.996;2022-09-13T12:51:33;99934.40;;;19.90
68588;BMP180;55560;52.174;20.996;2022-09-13T13:00:38;99916.00;;;19.90
68588;BMP180;55560;52.174;20.996;2022-09-13T13:05:43;99910.80;;;19.90
68588;BMP180;55560;52.174;20.996;2022-09-13T13:11:09;99912.20;;;19.92
68588;BMP180;55560;52.174;20.996;2022-09-13T13:13:57;99905.40;;;20.00
68588;BMP180;55560;52.174;20.996;2022-09-13T13:16:34;99900.00;;;20.00
68588;BMP180;55560;52.174;20.996;2022-09-13T13:19:28;99896.00;;;20.00
68588;BMP180;55560;52.174;20.996;2022-09-13T13:36:29;99858.40;;;19.70
68588;BMP180;55560;52.174;20.996;2022-09-13T13:39:01;99861.00;;;19.78
68588;BMP180;55560;52.174;20.996;2022-09-13T13:57:34;99863.00;;;19.80
68588;BMP180;55560;52.174;20.996;2022-09-13T14:00:14;99860.20;;;19.60
68588;BMP180;55560;52.174;20.996;2022-09-13T14:05:50;99857.60;;;19.60
68588;BMP180;55560;52.174;20.996;2022-09-13T14:11:57;99863.60;;;19.50
68588;BMP180;55560;52.174;20.996;2022-09-13T14:17:37;99859.80;;;19.40
68588;BMP180;55560;52.174;20.996;2022-09-13T14:20:12;99851.00;;;19.40
68588;BMP180;55560;52.174;20.996;2022-09-13T14:22:41;99847.40;;;19.50
68588;BMP180;55560;52.174;20.996;2022-09-13T14:25:23;99832.60;;;19.50
68588;BMP180;55560;52.174;20.996;2022-09-13T14:27:55;99826.40;;;19.60
68588;BMP180;55560;52.174;20.996;2022-09-13T14:30:37;99830.40;;;19.58
68588;BMP180;55560;52.174;20.996;2022-09-13T14:33:05;99825.80;;;19.50
68588;BMP180;55560;52.174;20.996;2022-09-13T14:35:39;99824.20;;;19.50
68588;BMP180;55560;52.174;20.996;2022-09-13T14:38:29;99817.40;;;19.50
68588;BMP180;55560;52.174;20.996;2022-09-13T14:41:15;99809.00;;;19.50
68588;BMP180;55560;52.174;20.996;2022-09-13T14:43:45;99804.40;;;19.50
68588;BMP180;55560;52.174;20.996;2022-09-13T14:46:38;99803.40;;;19.50
68588;BMP180;55560;52.174;20.996;2022-09-13T14:49:19;99802.40;;;19.40
68588;BMP180;55560;52.174;20.996;2022-09-13T14:52:04;99800.00;;;19.40
68588;BMP180;55560;52.174;20.996;2022-09-13T14:54:39;99798.80;;;19.40
68588;BMP180;55560;52.174;20.996;2022-09-13T14:57:27;99795.00;;;19.38
68588;BMP180;55560;52.174;20.996;2022-09-13T15:00:00;99792.40;;;19.30
68588;BMP180;55560;52.174;20.996;2022-09-13T15:02:35;99789.20;;;19.30
68588;BMP180;55560;52.174;20.996;2022-09-13T15:05:12;99788.40;;;19.30
68588;BMP180;55560;52.174;20.996;2022-09-13T15:07:42;99783.40;;;19.30
68588;BMP180;55560;52.174;20.996;2022-09-13T15:20:59;99782.80;;;19.20
68588;BMP180;55560;52.174;20.996;2022-09-13T15:23:38;99779.60;;;19.12
68588;BMP180;55560;52.174;20.996;2022-09-13T15:26:20;99782.40;;;19.10
68588;BMP180;55560;52.174;20.996;2022-09-13T15:28:54;99776.20;;;19.10
68588;BMP180;55560;52.174;20.996;2022-09-13T15:39:41;99774.00;;;19.00
68588;BMP180;55560;52.174;20.996;2022-09-13T15:42:09;99771.80;;;19.00
68588;BMP180;55560;52.174;20.996;2022-09-13T15:44:37;99770.20;;;19.00
68588;BMP180;55560;52.174;20.996;2022-09-13T15:47:15;99765.20;;;19.00
68588;BMP180;55560;52.174;20.996;2022-09-13T15:49:49;99763.40;;;19.00
68588;BMP180;55560;52.174;20.996;2022-09-13T15:52:19;99765.80;;;19.00
68588;BMP180;55560;52.174;20.996;2022-09-13T15:54:49;99762.60;;;18.90
68588;BMP180;55560;52.174;20.996;2022-09-13T15:57:25;99765.40;;;18.90
68588;BMP180;55560;52.174;20.996;2022-09-13T15:59:54;99760.40;;;18.90
68588;BMP180;55560;52.174;20.996;2022-09-13T16:02:26;99761.80;;;18.90
68588;BMP180;55560;52.174;20.996;2022-09-13T16:04:55;99759.80;;;18.90
68588;BMP180;55560;52.174;20.996;2022-09-13T16:07:24;99755.00;;;18.90
68588;BMP180;55560;52.174;20.996;2022-09-13T16:09:53;99752.20;;;18.82
68588;BMP180;55560;52.174;20.996;2022-09-13T16:12:20;99746.60;;;18.80
68588;BMP180;55560;52.174;20.996;2022-09-13T16:14:51;99744.40;;;18.80
68588;BMP180;55560;52.174;20.996;2022-09-13T16:17:24;99743.00;;;18.70
68588;BMP180;55560;52.174;20.996;2022-09-13T16:19:54;99739.40;;;18.70
68588;BMP180;55560;52.174;20.996;2022-09-13T16:22:22;99737.60;;;18.64
68588;BMP180;55560;52.174;20.996;2022-09-13T16:24:50;99732.40;;;18.60
68588;BMP180;55560;52.174;20.996;2022-09-13T16:27:18;99731.20;;;18.60
68588;BMP180;55560;52.174;20.996;2022-09-13T16:29:47;99726.60;;;18.50
68588;BMP180;55560;52.174;20.996;2022-09-13T16:32:15;99721.60;;;18.50
68588;BMP180;55560;52.174;20.996;2022-09-13T16:34:42;99722.80;;;18.40
68588;BMP180;55560;52.174;20.996;2022-09-13T16:37:15;99720.40;;;18.40
68588;BMP180;55560;52.174;20.996;2022-09-13T16:39:44;99715.20;;;18.34
68588;BMP180;55560;52.174;20.996;2022-09-13T16:42:14;99713.60;;;18.30
68588;BMP180;55560;52.174;20.996;2022-09-13T16:44:44;99708.20;;;18.30
68588;BMP180;55560;52.174;20.996;2022-09-13T16:47:12;99710.20;;;18.20
68588;BMP180;55560;52.174;20.996;2022-09-13T16:49:40;99711.40;;;18.20
68588;BMP180;55560;52.174;20.996;2022-09-13T16:52:08;99707.20;;;18.10
68588;BMP180;55560;52.174;20.996;2022-09-13T16:54:36;99703.00;;;18.00
68588;BMP180;55560;52.174;20.996;2022-09-13T16:57:05;99704.00;;;18.00
68588;BMP180;55560;52.174;20.996;2022-09-13T16:59:33;99700.40;;;17.98
68588;BMP180;55560;52.174;20.996;2022-09-13T17:02:01;99699.80;;;17.90
68588;BMP180;55560;52.174;20.996;2022-09-13T17:04:30;99705.40;;;17.90
68588;BMP180;55560;52.174;20.996;2022-09-13T17:06:58;99707.60;;;17.90
68588;BMP180;55560;52.174;20.996;2022-09-13T17:09:28;99708.00;;;17.86
68588;BMP180;55560;52.174;20.996;2022-09-13T17:11:58;99702.60;;;17.80
68588;BMP180;55560;52.174;20.996;2022-09-13T17:14:26;99701.00;;;17.80
68588;BMP180;55560;52.174;20.996;2022-09-13T17:16:55;99698.40;;;17.80
68588;BMP180;55560;52.174;20.996;2022-09-13T17:19:29;99697.40;;;17.80
68588;BMP180;55560;52.174;20.996;2022-09-13T17:22:02;99699.60;;;17.70
68588;BMP180;55560;52.174;20.996;2022-09-13T17:24:31;99702.80;;;17.70
68588;BMP180;55560;52.174;20.996;2022-09-13T17:26:59;99696.20;;;17.60
68588;BMP180;55560;52.174;20.996;2022-09-13T17:29:27;99690.60;;;17.60
68588;BMP180;55560;52.174;20.996;2022-09-13T17:31:59;99694.60;;;17.60
68588;BMP180;55560;52.174;20.996;2022-09-13T17:34:28;99692.60;;;17.50
68588;BMP180;55560;52.174;20.996;2022-09-13T17:36:57;99690.60;;;17.50
68588;BMP180;55560;52.174;20.996;2022-09-13T17:39:25;99691.40;;;17.50